sensor_id;sensor_type;location;lat;lon;timestamp;pressure;altitude;pressure_sealevel;temperature;humidity
52319;BME280;38258;51.148;14.068;2023-04-21T00:01:15;98500.69;;;7.19;100.00
52319;BME280;38258;51.148;14.068;2023-04-21T00:03:43;98503.34;;;7.13;100.00
52319;BME280;38258;51.148;14.068;2023-04-21T00:06:10;98497.78;;;7.43;100.00
52319;BME280;38258;51.148;14.068;2023-04-21T00:08:37;98501.66;;;7.09;100.00
52319;BME280;38258;51.148;14.068;2023-04-21T00:11:05;98499.81;;;7.20;100.00
52319;BME280;38258;51.148;14.068;2023-04-21T00:13:32;98500.00;;;7.02;100.00
52319;BME280;38258;51.148;14.068;2023-04-21T00:16:00;98501.78;;;7.00;100.00
52319;BME280;38258;51.148;14.068;2023-04-21T00:18:27;98496.81;;;6.79;100.00
52319;BME280;38258;51.148;14.068;2023-04-21T00:20:53;98491.56;;;6.84;100.00
52319;BME280;38258;51.148;14.068;2023-04-21T00:23:20;98481.06;;;6.92;100.00
52319;BME280;38258;51.148;14.068;2023-04-21T00:25:47;98476.09;;;6.75;100.00
52319;BME280;38258;51.148;14.068;2023-04-21T00:28:14;98479.44;;;6.85;100.00
52319;BME280;38258;51.148;14.068;2023-04-21T00:30:40;98484.81;;;6.69;100.00
52319;BME280;38258;51.148;14.068;2023-04-21T00:33:09;98473.34;;;6.86;100.00
52319;BME280;38258;51.148;14.068;2023-04-21T00:35:35;98485.56;;;6.79;100.00
52319;BME280;38258;51.148;14.068;2023-04-21T00:38:02;98484.81;;;6.69;100.00
52319;BME280;38258;51.148;14.068;2023-04-21T00:40:29;98482.13;;;6.77;100.00
52319;BME280;38258;51.148;14.068;2023-04-21T00:42:55;98470.50;;;7.06;100.00
52319;BME280;38258;51.148;14.068;2023-04-21T00:45:22;98478.91;;;7.27;100.00
52319;BME280;38258;51.148;14.068;2023-04-21T00:47:49;98474.78;;;7.12;100.00
52319;BME280;38258;51.148;14.068;2023-04-21T00:50:18;98477.94;;;7.32;100.00
52319;BME280;38258;51.148;14.068;2023-04-21T00:52:44;98473.75;;;7.24;100.00
52319;BME280;38258;51.148;14.068;2023-04-21T00:55:13;98476.50;;;7.11;100.00
52319;BME280;38258;51.148;14.068;2023-04-21T00:57:41;98479.31;;;6.94;100.00
52319;BME280;38258;51.148;14.068;2023-04-21T01:00:09;98479.28;;;6.97;100.00
52319;BME280;38258;51.148;14.068;2023-04-21T01:02:38;98482.38;;;7.27;100.00
52319;BME280;38258;51.148;14.068;2023-04-21T01:05:06;98469.78;;;6.93;100.00
52319;BME280;38258;51.148;14.068;2023-04-21T01:07:35;98473.84;;;7.14;100.00
52319;BME280;38258;51.148;14.068;2023-04-21T01:10:01;98455.69;;;7.10;100.00
52319;BME280;38258;51.148;14.068;2023-04-21T01:12:29;98448.25;;;6.83;100.00
52319;BME280;38258;51.148;14.068;2023-04-21T01:14:57;98463.97;;;6.72;100.00
52319;BME280;38258;51.148;14.068;2023-04-21T01:17:24;98472.97;;;7.17;100.00
52319;BME280;38258;51.148;14.068;2023-04-21T01:19:52;98464.38;;;7.10;100.00
52319;BME280;38258;51.148;14.068;2023-04-21T01:22:23;98460.09;;;7.06;100.00
52319;BME280;38258;51.148;14.068;2023-04-21T01:24:49;98464.53;;;6.98;100.00
52319;BME280;38258;51.148;14.068;2023-04-21T01:27:18;98467.31;;;6.84;100.00
52319;BME280;38258;51.148;14.068;2023-04-21T01:29:48;98463.19;;;6.67;100.00
52319;BME280;38258;51.148;14.068;2023-04-21T01:32:17;98455.50;;;6.55;100.00
52319;BME280;38258;51.148;14.068;2023-04-21T01:34:45;98456.09;;;6.80;100.00
52319;BME280;38258;51.148;14.068;2023-04-21T01:37:14;98448.41;;;6.69;100.00
52319;BME280;38258;51.148;14.068;2023-04-21T01:39:44;98456.13;;;6.75;100.00
52319;BME280;38258;51.148;14.068;2023-04-21T01:44:49;98446.00;;;6.50;100.00
52319;BME280;38258;51.148;14.068;2023-04-21T01:47:18;98451.81;;;6.73;100.00
52319;BME280;38258;51.148;14.068;2023-04-21T01:49:45;98448.53;;;6.58;100.00
52319;BME280;38258;51.148;14.068;2023-04-21T01:52:12;98446.00;;;6.50;100.00
52319;BME280;38258;51.148;14.068;2023-04-21T01:54:38;98441.72;;;6.45;100.00
52319;BME280;38258;51.148;14.068;2023-04-21T01:57:07;98448.59;;;6.54;100.00
52319;BME280;38258;51.148;14.068;2023-04-21T01:59:34;98434.09;;;6.29;100.00
52319;BME280;38258;51.148;14.068;2023-04-21T02:02:01;98439.34;;;6.28;100.00
52319;BME280;38258;51.148;14.068;2023-04-21T02:04:28;98440.13;;;6.34;100.00
52319;BME280;38258;51.148;14.068;2023-04-21T02:06:55;98433.06;;;6.47;100.00
52319;BME280;38258;51.148;14.068;2023-04-21T02:09:21;98430.41;;;6.52;100.00
52319;BME280;38258;51.148;14.068;2023-04-21T02:11:51;98431.94;;;6.69;100.00
52319;BME280;38258;51.148;14.068;2023-04-21T02:14:19;98427.91;;;6.44;100.00
52319;BME280;38258;51.148;14.068;2023-04-21T02:16:46;98433.13;;;6.40;100.00
52319;BME280;38258;51.148;14.068;2023-04-21T02:19:13;98431.41;;;6.40;100.00
52319;BME280;38258;51.148;14.068;2023-04-21T02:21:39;98433.09;;;6.44;100.00
52319;BME280;38258;51.148;14.068;2023-04-21T02:24:06;98430.53;;;6.41;100.00
52319;BME280;38258;51.148;14.068;2023-04-21T02:26:33;98436.78;;;6.21;100.00
52319;BME280;38258;51.148;14.068;2023-04-21T02:29:01;98442.13;;;6.06;100.00
52319;BME280;38258;51.148;14.068;2023-04-21T02:31:29;98439.59;;;5.93;100.00
52319;BME280;38258;51.148;14.068;2023-04-21T02:33:55;98437.03;;;5.92;100.00
52319;BME280;38258;51.148;14.068;2023-04-21T02:36:23;98436.09;;;5.99;100.00
52319;BME280;38258;51.148;14.068;2023-04-21T02:38:50;98431.78;;;6.01;100.00
52319;BME280;38258;51.148;14.068;2023-04-21T02:41:17;98435.03;;;6.25;100.00
52319;BME280;38258;51.148;14.068;2023-04-21T02:43:44;98420.44;;;6.13;100.00
52319;BME280;38258;51.148;14.068;2023-04-21T02:46:10;98420.47;;;6.10;100.00
52319;BME280;38258;51.148;14.068;2023-04-21T02:48:40;98419.50;;;6.17;100.00
52319;BME280;38258;51.148;14.068;2023-04-21T02:51:10;98421.81;;;6.44;100.00
52319;BME280;38258;51.148;14.068;2023-04-21T02:53:37;98428.94;;;6.28;100.00
52319;BME280;38258;51.148;14.068;2023-04-21T02:56:05;98431.06;;;6.71;100.00
52319;BME280;38258;51.148;14.068;2023-04-21T02:58:33;98428.94;;;6.28;100.00
52319;BME280;38258;51.148;14.068;2023-04-21T03:01:00;98432.66;;;6.03;100.00
52319;BME280;38258;51.148;14.068;2023-04-21T03:03:28;98430.97;;;5.91;100.00
52319;BME280;38258;51.148;14.068;2023-04-21T03:06:00;98433.13;;;5.35;100.00
52319;BME280;38258;51.148;14.068;2023-04-21T03:08:27;98431.47;;;5.24;100.00
52319;BME280;38258;51.148;14.068;2023-04-21T03:10:55;98425.41;;;5.27;100.00
52319;BME280;38258;51.148;14.068;2023-04-21T03:13:22;98424.56;;;5.22;100.00
52319;BME280;38258;51.148;14.068;2023-04-21T03:15:50;98410.06;;;4.85;100.00
52319;BME280;38258;51.148;14.068;2023-04-21T03:18:17;98430.81;;;4.82;100.00
52319;BME280;38258;51.148;14.068;2023-04-21T03:20:44;98419.53;;;4.95;100.00
52319;BME280;38258;51.148;14.068;2023-04-21T03:23:12;98420.28;;;5.19;100.00
52319;BME280;38258;51.148;14.068;2023-04-21T03:25:39;98423.69;;;5.23;100.00
52319;BME280;38258;51.148;14.068;2023-04-21T03:28:05;98425.28;;;5.47;100.00
52319;BME280;38258;51.148;14.068;2023-04-21T03:30:32;98426.59;;;5.98;100.00
52319;BME280;38258;51.148;14.068;2023-04-21T03:32:59;98421.69;;;6.58;100.00
52319;BME280;38258;51.148;14.068;2023-04-21T03:35:26;98421.78;;;6.48;100.00
52319;BME280;38258;51.148;14.068;2023-04-21T03:37:52;98424.78;;;6.08;100.00
52319;BME280;38258;51.148;14.068;2023-04-21T03:40:21;98429.13;;;6.06;100.00
52319;BME280;38258;51.148;14.068;2023-04-21T03:42:48;98425.38;;;6.35;100.00
52319;BME280;38258;51.148;14.068;2023-04-21T03:45:15;98425.53;;;6.21;100.00
52319;BME280;38258;51.148;14.068;2023-04-21T03:47:43;98426.56;;;6.04;100.00
52319;BME280;38258;51.148;14.068;2023-04-21T03:50:10;98414.25;;;6.23;100.00
52319;BME280;38258;51.148;14.068;2023-04-21T03:52:37;98419.47;;;6.20;100.00
52319;BME280;38258;51.148;14.068;2023-04-21T03:55:05;98425.50;;;6.26;100.00
52319;BME280;38258;51.148;14.068;2023-04-21T03:57:37;98436.13;;;5.98;100.00
52319;BME280;38258;51.148;14.068;2023-04-21T04:00:05;98429.25;;;5.90;100.00
52319;BME280;38258;51.148;14.068;2023-04-21T04:02:38;98429.13;;;6.07;100.00
52319;BME280;38258;51.148;14.068;2023-04-21T04:05:05;98436.09;;;6.04;100.00
52319;BME280;38258;51.148;14.068;2023-04-21T04:07:32;98442.16;;;6.00;100.00
52319;BME280;38258;51.148;14.068;2023-04-21T04:09:59;98434.25;;;6.15;100.00
52319;BME280;38258;51.148;14.068;2023-04-21T04:12:26;98439.59;;;5.95;100.00
52319;BME280;38258;51.148;14.068;2023-04-21T04:14:54;98438.69;;;6.05;100.00
52319;BME280;38258;51.148;14.068;2023-04-21T04:17:21;98439.41;;;6.17;100.00
52319;BME280;38258;51.148;14.068;2023-04-21T04:19:47;98439.56;;;6.01;100.00
52319;BME280;38258;51.148;14.068;2023-04-21T04:22:14;98439.34;;;6.28;100.00
52319;BME280;38258;51.148;14.068;2023-04-21T04:24:41;98449.94;;;6.00;100.00
52319;BME280;38258;51.148;14.068;2023-04-21T04:27:09;98449.91;;;6.06;100.00
52319;BME280;38258;51.148;14.068;2023-04-21T04:29:38;98452.47;;;6.11;100.00
52319;BME280;38258;51.148;14.068;2023-04-21T04:32:06;98444.78;;;5.97;100.00
52319;BME280;38258;51.148;14.068;2023-04-21T04:34:35;98445.50;;;6.16;100.00
52319;BME280;38258;51.148;14.068;2023-04-21T04:37:03;98450.69;;;6.17;100.00
52319;BME280;38258;51.148;14.068;2023-04-21T04:39:31;98449.75;;;6.25;100.00
52319;BME280;38258;51.148;14.068;2023-04-21T04:41:58;98440.97;;;6.35;100.00
52319;BME280;38258;51.148;14.068;2023-04-21T04:44:25;98445.41;;;6.23;100.00
52319;BME280;38258;51.148;14.068;2023-04-21T04:46:52;98449.91;;;6.06;100.00
52319;BME280;38258;51.148;14.068;2023-04-21T04:49:20;98448.22;;;6.03;100.00
52319;BME280;38258;51.148;14.068;2023-04-21T04:51:47;98455.06;;;6.09;100.00
52319;BME280;38258;51.148;14.068;2023-04-21T04:54:14;98441.09;;;6.22;100.00
52319;BME280;38258;51.148;14.068;2023-04-21T04:56:40;98447.94;;;6.33;100.00
52319;BME280;38258;51.148;14.068;2023-04-21T04:59:07;98439.22;;;6.40;100.00
52319;BME280;38258;51.148;14.068;2023-04-21T05:01:34;98441.50;;;6.68;100.00
52319;BME280;38258;51.148;14.068;2023-04-21T05:04:02;98448.28;;;6.80;100.00
52319;BME280;38258;51.148;14.068;2023-04-21T05:06:30;98456.13;;;6.75;100.00
52319;BME280;38258;51.148;14.068;2023-04-21T05:08:57;98455.28;;;6.73;100.00
52319;BME280;38258;51.148;14.068;2023-04-21T05:11:24;98452.78;;;6.64;100.00
52319;BME280;38258;51.148;14.068;2023-04-21T05:13:50;98465.56;;;6.86;100.00
52319;BME280;38258;51.148;14.068;2023-04-21T05:16:17;98456.69;;;7.02;100.00
52319;BME280;38258;51.148;14.068;2023-04-21T05:18:44;98468.44;;;7.30;100.00
52319;BME280;38258;51.148;14.068;2023-04-21T05:21:10;98428.03;;;7.05;100.00
52319;BME280;38258;51.148;14.068;2023-04-21T05:23:38;98457.91;;;7.38;100.00
52319;BME280;38258;51.148;14.068;2023-04-21T05:26:05;98460.56;;;7.34;100.00
52319;BME280;38258;51.148;14.068;2023-04-21T05:28:32;98464.97;;;7.31;100.00
52319;BME280;38258;51.148;14.068;2023-04-21T05:31:00;98469.09;;;7.44;100.00
52319;BME280;38258;51.148;14.068;2023-04-21T05:33:26;98445.63;;;7.49;100.00
52319;BME280;38258;51.148;14.068;2023-04-21T05:35:56;98464.97;;;7.89;100.00
52319;BME280;38258;51.148;14.068;2023-04-21T05:38:22;98469.44;;;7.81;100.00
52319;BME280;38258;51.148;14.068;2023-04-21T05:40:53;98463.09;;;7.97;100.00
52319;BME280;38258;51.148;14.068;2023-04-21T05:43:20;98469.50;;;8.29;100.00
52319;BME280;38258;51.148;14.068;2023-04-21T05:45:47;98456.53;;;8.25;100.00
52319;BME280;38258;51.148;14.068;2023-04-21T05:48:14;98465.78;;;8.43;100.00
52319;BME280;38258;51.148;14.068;2023-04-21T05:50:41;98450.97;;;8.45;100.00
52319;BME280;38258;51.148;14.068;2023-04-21T05:53:07;98468.13;;;8.58;100.00
52319;BME280;38258;51.148;14.068;2023-04-21T05:55:35;98461.41;;;8.45;100.00
52319;BME280;38258;51.148;14.068;2023-04-21T05:58:03;98458.44;;;8.65;100.00
52319;BME280;38258;51.148;14.068;2023-04-21T06:00:30;98454.94;;;8.66;100.00
52319;BME280;38258;51.148;14.068;2023-04-21T06:02:56;98461.03;;;8.68;100.00
52319;BME280;38258;51.148;14.068;2023-04-21T06:05:23;98453.72;;;8.84;100.00
52319;BME280;38258;51.148;14.068;2023-04-21T06:07:50;98454.13;;;9.08;100.00
52319;BME280;38258;51.148;14.068;2023-04-21T06:10:17;98452.91;;;9.25;100.00
52319;BME280;38258;51.148;14.068;2023-04-21T06:12:44;98451.13;;;9.25;100.00
52319;BME280;38258;51.148;14.068;2023-04-21T06:15:12;98450.34;;;9.22;100.00
52319;BME280;38258;51.148;14.068;2023-04-21T06:17:38;98451.81;;;9.33;100.00
52319;BME280;38258;51.148;14.068;2023-04-21T06:20:07;98451.47;;;9.49;100.00
52319;BME280;38258;51.148;14.068;2023-04-21T06:22:34;98452.34;;;9.50;100.00
52319;BME280;38258;51.148;14.068;2023-04-21T06:25:00;98450.19;;;9.67;100.00
52319;BME280;38258;51.148;14.068;2023-04-21T06:27:27;98443.16;;;9.71;100.00
52319;BME280;38258;51.148;14.068;2023-04-21T06:29:54;98449.63;;;9.92;100.00
52319;BME280;38258;51.148;14.068;2023-04-21T06:32:22;98445.50;;;9.82;100.00
52319;BME280;38258;51.148;14.068;2023-04-21T06:34:49;98449.56;;;9.94;100.00
52319;BME280;38258;51.148;14.068;2023-04-21T06:37:16;98437.50;;;9.88;100.00
52319;BME280;38258;51.148;14.068;2023-04-21T06:39:42;98442.78;;;9.86;100.00
52319;BME280;38258;51.148;14.068;2023-04-21T06:42:09;98447.00;;;9.92;100.00
52319;BME280;38258;51.148;14.068;2023-04-21T06:44:41;98445.44;;;10.19;100.00
52319;BME280;38258;51.148;14.068;2023-04-21T06:47:07;98425.63;;;10.11;100.00
52319;BME280;38258;51.148;14.068;2023-04-21T06:49:35;98443.53;;;10.25;100.00
52319;BME280;38258;51.148;14.068;2023-04-21T06:52:02;98437.28;;;10.32;100.00
52319;BME280;38258;51.148;14.068;2023-04-21T06:54:29;98433.56;;;10.39;100.00
52319;BME280;38258;51.148;14.068;2023-04-21T06:56:56;98438.78;;;10.42;100.00
52319;BME280;38258;51.148;14.068;2023-04-21T06:59:23;98441.22;;;10.49;100.00
52319;BME280;38258;51.148;14.068;2023-04-21T07:01:50;98446.09;;;10.63;100.00
52319;BME280;38258;51.148;14.068;2023-04-21T07:04:17;98445.78;;;10.73;100.00
52319;BME280;38258;51.148;14.068;2023-04-21T07:06:45;98441.16;;;10.82;100.00
52319;BME280;38258;51.148;14.068;2023-04-21T07:09:13;98443.34;;;10.97;100.00
52319;BME280;38258;51.148;14.068;2023-04-21T07:11:40;98443.97;;;11.07;100.00
52319;BME280;38258;51.148;14.068;2023-04-21T07:14:06;98445.97;;;11.27;100.00
52319;BME280;38258;51.148;14.068;2023-04-21T07:16:33;98437.94;;;11.34;100.00
52319;BME280;38258;51.148;14.068;2023-04-21T07:19:00;98436.13;;;11.64;100.00
52319;BME280;38258;51.148;14.068;2023-04-21T07:21:26;98445.03;;;11.85;100.00
52319;BME280;38258;51.148;14.068;2023-04-21T07:23:56;98445.31;;;12.05;100.00
52319;BME280;38258;51.148;14.068;2023-04-21T07:26:22;98443.03;;;12.21;100.00
52319;BME280;38258;51.148;14.068;2023-04-21T07:28:49;98451.19;;;12.11;100.00
52319;BME280;38258;51.148;14.068;2023-04-21T07:31:17;98452.41;;;12.28;100.00
52319;BME280;38258;51.148;14.068;2023-04-21T07:33:43;98448.38;;;12.43;100.00
52319;BME280;38258;51.148;14.068;2023-04-21T07:36:10;98442.31;;;12.42;100.00
52319;BME280;38258;51.148;14.068;2023-04-21T07:38:37;98448.78;;;12.32;100.00
52319;BME280;38258;51.148;14.068;2023-04-21T07:41:09;98449.97;;;12.96;100.00
52319;BME280;38258;51.148;14.068;2023-04-21T07:43:36;98453.41;;;13.22;100.00
52319;BME280;38258;51.148;14.068;2023-04-21T07:46:03;98445.66;;;13.41;100.00
52319;BME280;38258;51.148;14.068;2023-04-21T07:48:30;98447.38;;;13.42;100.00
52319;BME280;38258;51.148;14.068;2023-04-21T07:50:56;98443.97;;;13.40;100.00
52319;BME280;38258;51.148;14.068;2023-04-21T07:53:24;98428.16;;;13.42;100.00
52319;BME280;38258;51.148;14.068;2023-04-21T07:55:51;98443.84;;;13.88;100.00
52319;BME280;38258;51.148;14.068;2023-04-21T07:58:20;98446.06;;;13.77;100.00
52319;BME280;38258;51.148;14.068;2023-04-21T08:00:47;98432.78;;;14.23;100.00
52319;BME280;38258;51.148;14.068;2023-04-21T08:03:13;98440.31;;;13.89;99.59
52319;BME280;38258;51.148;14.068;2023-04-21T08:05:40;98446.63;;;14.28;100.00
52319;BME280;38258;51.148;14.068;2023-04-21T08:08:07;98439.69;;;14.25;95.66
52319;BME280;38258;51.148;14.068;2023-04-21T08:10:34;98445.00;;;14.24;96.84
52319;BME280;38258;51.148;14.068;2023-04-21T08:13:00;98434.72;;;14.80;94.10
52319;BME280;38258;51.148;14.068;2023-04-21T08:15:29;98431.63;;;15.10;96.64
52319;BME280;38258;51.148;14.068;2023-04-21T08:17:55;98433.75;;;14.82;95.13
52319;BME280;38258;51.148;14.068;2023-04-21T08:20:22;98429.91;;;15.09;91.40
52319;BME280;38258;51.148;14.068;2023-04-21T08:22:49;98430.84;;;15.27;89.05
52319;BME280;38258;51.148;14.068;2023-04-21T08:25:15;98428.38;;;14.65;85.67
52319;BME280;38258;51.148;14.068;2023-04-21T08:27:42;98433.41;;;15.29;90.74
52319;BME280;38258;51.148;14.068;2023-04-21T08:30:10;98429.06;;;15.08;85.00
52319;BME280;38258;51.148;14.068;2023-04-21T08:32:38;98424.66;;;15.09;86.01
52319;BME280;38258;51.148;14.068;2023-04-21T08:35:05;98434.03;;;15.34;78.29
52319;BME280;38258;51.148;14.068;2023-04-21T08:37:35;98431.25;;;15.37;82.08
52319;BME280;38258;51.148;14.068;2023-04-21T08:40:01;98413.38;;;15.80;86.48
52319;BME280;38258;51.148;14.068;2023-04-21T08:42:28;98422.28;;;15.41;85.48
52319;BME280;38258;51.148;14.068;2023-04-21T08:44:55;98421.69;;;15.53;81.12
52319;BME280;38258;51.148;14.068;2023-04-21T08:47:23;98418.88;;;15.20;85.22
52319;BME280;38258;51.148;14.068;2023-04-21T08:49:51;98431.09;;;15.59;84.03
52319;BME280;38258;51.148;14.068;2023-04-21T08:52:18;98416.41;;;15.90;80.42
52319;BME280;38258;51.148;14.068;2023-04-21T08:54:45;98402.00;;;16.15;82.83
52319;BME280;38258;51.148;14.068;2023-04-21T08:57:16;98418.63;;;15.80;80.53
52319;BME280;38258;51.148;14.068;2023-04-21T08:59:43;98410.88;;;15.77;81.25
52319;BME280;38258;51.148;14.068;2023-04-21T09:02:11;98419.06;;;15.53;82.65
52319;BME280;38258;51.148;14.068;2023-04-21T09:04:39;98421.19;;;16.19;79.98
52319;BME280;38258;51.148;14.068;2023-04-21T09:07:08;98422.94;;;16.53;80.84
52319;BME280;38258;51.148;14.068;2023-04-21T09:09:50;98425.53;;;16.20;80.31
52319;BME280;38258;51.148;14.068;2023-04-21T09:12:18;98414.09;;;16.02;79.26
52319;BME280;38258;51.148;14.068;2023-04-21T09:14:44;98412.91;;;16.60;75.33
52319;BME280;38258;51.148;14.068;2023-04-21T09:17:11;98414.28;;;17.96;84.34
52319;BME280;38258;51.148;14.068;2023-04-21T09:19:38;98403.47;;;17.85;71.03
52319;BME280;38258;51.148;14.068;2023-04-21T09:22:05;98412.16;;;17.56;67.48
52319;BME280;38258;51.148;14.068;2023-04-21T09:24:33;98417.13;;;18.09;62.54
52319;BME280;38258;51.148;14.068;2023-04-21T09:27:02;98420.13;;;17.87;62.82
52319;BME280;38258;51.148;14.068;2023-04-21T09:29:28;98415.88;;;17.68;61.88
52319;BME280;38258;51.148;14.068;2023-04-21T09:31:55;98403.22;;;18.20;63.16
52319;BME280;38258;51.148;14.068;2023-04-21T09:34:25;98398.91;;;18.48;63.85
52319;BME280;38258;51.148;14.068;2023-04-21T09:36:58;98404.84;;;18.22;63.25
52319;BME280;38258;51.148;14.068;2023-04-21T09:39:25;98404.53;;;18.13;61.86
52319;BME280;38258;51.148;14.068;2023-04-21T09:41:54;98393.63;;;18.03;57.40
52319;BME280;38258;51.148;14.068;2023-04-21T09:44:22;98378.19;;;18.26;57.58
52319;BME280;38258;51.148;14.068;2023-04-21T09:46:49;98390.88;;;18.64;56.43
52319;BME280;38258;51.148;14.068;2023-04-21T09:49:17;98399.09;;;18.00;59.26
52319;BME280;38258;51.148;14.068;2023-04-21T09:51:44;98393.44;;;18.06;58.90
52319;BME280;38258;51.148;14.068;2023-04-21T09:54:15;98401.41;;;17.90;60.07
52319;BME280;38258;51.148;14.068;2023-04-21T09:56:43;98381.16;;;18.64;64.08
52319;BME280;38258;51.148;14.068;2023-04-21T09:59:18;98383.03;;;18.77;57.35
52319;BME280;38258;51.148;14.068;2023-04-21T10:01:47;98390.47;;;18.12;56.23
52319;BME280;38258;51.148;14.068;2023-04-21T10:04:16;98391.72;;;19.08;54.75
52319;BME280;38258;51.148;14.068;2023-04-21T10:06:44;98377.72;;;18.33;54.28
52319;BME280;38258;51.148;14.068;2023-04-21T10:09:13;98384.34;;;18.55;55.63
52319;BME280;38258;51.148;14.068;2023-04-21T10:11:41;98388.16;;;19.64;52.49
52319;BME280;38258;51.148;14.068;2023-04-21T10:14:09;98391.63;;;17.76;59.56
52319;BME280;38258;51.148;14.068;2023-04-21T10:16:38;98379.91;;;18.85;53.59
52319;BME280;38258;51.148;14.068;2023-04-21T10:19:22;98380.31;;;19.35;55.16
52319;BME280;38258;51.148;14.068;2023-04-21T10:21:50;98376.97;;;19.04;53.15
52319;BME280;38258;51.148;14.068;2023-04-21T10:24:16;98371.81;;;19.30;53.63
52319;BME280;38258;51.148;14.068;2023-04-21T10:26:43;98375.84;;;19.35;44.34
52319;BME280;38258;51.148;14.068;2023-04-21T10:29:10;98375.91;;;19.48;43.82
52319;BME280;38258;51.148;14.068;2023-04-21T10:31:50;98374.06;;;19.36;50.40
52319;BME280;38258;51.148;14.068;2023-04-21T10:34:22;98368.53;;;19.94;54.90
52319;BME280;38258;51.148;14.068;2023-04-21T10:37:15;98368.44;;;19.68;47.11
52319;BME280;38258;51.148;14.068;2023-04-21T10:39:54;98355.97;;;19.56;49.56
52319;BME280;38258;51.148;14.068;2023-04-21T10:42:33;98358.44;;;19.04;44.93
52319;BME280;38258;51.148;14.068;2023-04-21T10:45:06;98363.69;;;19.18;57.52
52319;BME280;38258;51.148;14.068;2023-04-21T10:47:37;98343.84;;;18.09;59.82
52319;BME280;38258;51.148;14.068;2023-04-21T10:50:13;98333.03;;;16.89;56.71
52319;BME280;38258;51.148;14.068;2023-04-21T10:55:27;98347.44;;;18.81;45.93
52319;BME280;38258;51.148;14.068;2023-04-21T10:57:55;98353.31;;;19.83;46.35
52319;BME280;38258;51.148;14.068;2023-04-21T11:00:23;98345.38;;;19.96;48.38
52319;BME280;38258;51.148;14.068;2023-04-21T11:03:00;98348.06;;;20.48;47.78
52319;BME280;38258;51.148;14.068;2023-04-21T11:05:29;98340.56;;;19.75;50.82
52319;BME280;38258;51.148;14.068;2023-04-21T11:08:10;98340.06;;;19.56;56.09
52319;BME280;38258;51.148;14.068;2023-04-21T11:10:42;98339.91;;;19.17;51.33
52319;BME280;38258;51.148;14.068;2023-04-21T11:13:09;98341.34;;;18.51;43.72
52319;BME280;38258;51.148;14.068;2023-04-21T11:15:36;98337.09;;;19.05;53.16
52319;BME280;38258;51.148;14.068;2023-04-21T11:18:04;98330.63;;;18.24;43.00
52319;BME280;38258;51.148;14.068;2023-04-21T11:20:33;98323.13;;;19.31;43.86
52319;BME280;38258;51.148;14.068;2023-04-21T11:23:00;98336.19;;;19.34;42.85
52319;BME280;38258;51.148;14.068;2023-04-21T11:25:26;98325.97;;;19.96;42.29
52319;BME280;38258;51.148;14.068;2023-04-21T11:27:54;98335.41;;;19.04;44.02
52319;BME280;38258;51.148;14.068;2023-04-21T11:30:29;98319.34;;;20.53;51.74
52319;BME280;38258;51.148;14.068;2023-04-21T11:32:57;98320.28;;;20.65;49.19
52319;BME280;38258;51.148;14.068;2023-04-21T11:35:25;98307.34;;;21.11;41.68
52319;BME280;38258;51.148;14.068;2023-04-21T11:37:54;98323.16;;;20.62;41.80
52319;BME280;38258;51.148;14.068;2023-04-21T11:40:20;98324.09;;;18.59;52.72
52319;BME280;38258;51.148;14.068;2023-04-21T11:42:47;98322.84;;;19.21;46.63
52319;BME280;38258;51.148;14.068;2023-04-21T11:45:17;98320.50;;;18.45;43.58
52319;BME280;38258;51.148;14.068;2023-04-21T11:47:46;98320.88;;;18.68;43.83
52319;BME280;38258;51.148;14.068;2023-04-21T11:50:30;98311.81;;;18.43;49.71
52319;BME280;38258;51.148;14.068;2023-04-21T11:52:57;98312.13;;;18.95;50.19
52319;BME280;38258;51.148;14.068;2023-04-21T11:55:24;98313.50;;;20.61;48.64
52319;BME280;38258;51.148;14.068;2023-04-21T11:57:51;98313.72;;;20.58;41.90
52319;BME280;38258;51.148;14.068;2023-04-21T12:00:18;98309.09;;;18.45;52.37
52319;BME280;38258;51.148;14.068;2023-04-21T12:02:53;98303.09;;;18.56;44.36
52319;BME280;38258;51.148;14.068;2023-04-21T12:05:21;98312.53;;;19.31;45.30
52319;BME280;38258;51.148;14.068;2023-04-21T12:07:49;98303.19;;;19.38;47.96
52319;BME280;38258;51.148;14.068;2023-04-21T12:10:18;98311.00;;;18.99;44.00
52319;BME280;38258;51.148;14.068;2023-04-21T12:12:46;98310.88;;;19.96;43.88
52319;BME280;38258;51.148;14.068;2023-04-21T12:15:17;98307.91;;;19.20;43.49
52319;BME280;38258;51.148;14.068;2023-04-21T12:17:45;98304.63;;;20.10;41.29
52319;BME280;38258;51.148;14.068;2023-04-21T12:20:14;98312.13;;;19.50;42.52
52319;BME280;38258;51.148;14.068;2023-04-21T12:22:42;98303.34;;;20.16;42.58
52319;BME280;38258;51.148;14.068;2023-04-21T12:25:10;98301.84;;;19.18;42.36
52319;BME280;38258;51.148;14.068;2023-04-21T12:27:36;98288.38;;;17.77;42.32
52319;BME280;38258;51.148;14.068;2023-04-21T12:30:04;98305.69;;;17.83;46.12
52319;BME280;38258;51.148;14.068;2023-04-21T12:32:31;98296.97;;;18.97;51.39
52319;BME280;38258;51.148;14.068;2023-04-21T12:34:58;98301.59;;;18.66;48.22
52319;BME280;38258;51.148;14.068;2023-04-21T12:37:24;98287.72;;;18.33;46.14
52319;BME280;38258;51.148;14.068;2023-04-21T12:39:51;98305.63;;;18.72;45.38
52319;BME280;38258;51.148;14.068;2023-04-21T12:42:19;98279.56;;;18.51;43.10
52319;BME280;38258;51.148;14.068;2023-04-21T12:44:46;98294.06;;;18.00;43.58
52319;BME280;38258;51.148;14.068;2023-04-21T12:47:12;98283.25;;;18.34;44.48
52319;BME280;38258;51.148;14.068;2023-04-21T12:49:40;98277.25;;;17.87;47.71
52319;BME280;38258;51.148;14.068;2023-04-21T12:52:07;98275.72;;;17.83;46.91
52319;BME280;38258;51.148;14.068;2023-04-21T12:54:34;98269.47;;;17.69;47.16
52319;BME280;38258;51.148;14.068;2023-04-21T12:57:01;98286.69;;;17.46;43.71